createdAt,value
2022-11-15T00:05:14.168Z,1.65
2022-11-15T00:10:43.096Z,1.45
2022-11-15T00:16:19.331Z,1.70
2022-11-15T00:21:52.211Z,1.70
2022-11-15T00:33:48.051Z,1.50
2022-11-15T00:39:25.006Z,1.29
2022-11-15T00:45:41.870Z,1.91
2022-11-15T00:51:22.012Z,1.49
2022-11-15T00:57:20.976Z,1.60
2022-11-15T01:09:46.631Z,1.37
2022-11-15T01:15:48.265Z,1.46
2022-11-15T01:21:35.972Z,1.72
2022-11-15T01:27:18.904Z,1.52
2022-11-15T01:32:47.334Z,1.66
2022-11-15T01:38:33.301Z,1.44
2022-11-15T01:44:01.384Z,1.77
2022-11-15T01:50:24.135Z,1.69
2022-11-15T01:56:11.723Z,1.60
2022-11-15T02:01:40.654Z,1.49
2022-11-15T02:07:14.306Z,1.53
2022-11-15T02:12:42.515Z,1.65
2022-11-15T02:18:12.066Z,1.22
2022-11-15T02:23:43.419Z,1.51
2022-11-15T02:30:06.129Z,1.45
2022-11-15T02:35:44.363Z,1.52
2022-11-15T02:41:16.426Z,1.41
2022-11-15T02:47:03.484Z,1.49
2022-11-15T02:52:37.350Z,1.34
2022-11-15T02:58:08.325Z,1.31
2022-11-15T03:03:55.327Z,1.43
2022-11-15T03:09:28.828Z,1.47
2022-11-15T03:14:58.249Z,1.53
2022-11-15T03:20:31.126Z,1.33
2022-11-15T03:25:56.630Z,1.59
2022-11-15T03:31:22.000Z,1.69
2022-11-15T03:36:51.143Z,1.48
2022-11-15T03:42:17.253Z,1.58
2022-11-15T03:47:43.767Z,1.47
2022-11-15T03:53:14.504Z,1.58
2022-11-15T03:58:57.384Z,1.59
2022-11-15T04:04:52.003Z,1.45
2022-11-15T04:10:26.606Z,1.61
2022-11-15T04:16:03.535Z,1.48
2022-11-15T04:21:37.557Z,1.30
2022-11-15T04:27:10.078Z,1.65
2022-11-15T04:32:41.793Z,1.46
2022-11-15T04:38:12.899Z,1.41
2022-11-15T04:43:53.953Z,1.56
2022-11-15T04:49:27.393Z,1.85
2022-11-15T04:54:59.774Z,1.59
2022-11-15T05:00:26.837Z,1.97
2022-11-15T05:05:50.931Z,2.02
2022-11-15T05:11:22.631Z,1.92
2022-11-15T05:16:50.116Z,1.81
2022-11-15T05:37:19.493Z,2.10
2022-11-15T05:42:51.411Z,2.26
2022-11-15T05:48:16.277Z,2.10
2022-11-15T05:53:41.752Z,2.40
2022-11-15T05:59:10.804Z,2.16
2022-11-15T06:04:37.114Z,2.48
2022-11-15T06:10:04.280Z,2.13
2022-11-15T06:15:36.507Z,2.27
2022-11-15T06:21:12.918Z,2.08
2022-11-15T06:26:40.869Z,2.67
2022-11-15T06:32:06.796Z,2.50
2022-11-15T06:37:30.579Z,2.56
2022-11-15T06:42:55.384Z,2.18
2022-11-15T06:48:22.159Z,2.00
2022-11-15T06:53:44.030Z,2.35
2022-11-15T06:59:11.482Z,2.81
2022-11-15T07:04:37.652Z,2.32
2022-11-15T07:10:03.020Z,2.74
2022-11-15T07:15:26.475Z,2.36
2022-11-15T07:20:51.445Z,2.71
2022-11-15T07:26:18.609Z,2.69
2022-11-15T07:31:46.518Z,2.49
2022-11-15T07:37:12.643Z,2.14
2022-11-15T07:42:34.198Z,2.32
2022-11-15T07:48:01.313Z,2.52
2022-11-15T07:53:23.843Z,2.59
2022-11-15T07:58:47.488Z,2.31
2022-11-15T08:04:15.021Z,2.47
2022-11-15T08:09:42.528Z,2.42
2022-11-15T08:15:04.185Z,2.16
2022-11-15T08:20:27.736Z,2.18
2022-11-15T08:25:49.343Z,2.45
2022-11-15T08:31:15.109Z,2.61
2022-11-15T08:36:44.836Z,2.17
2022-11-15T08:42:03.382Z,2.81
2022-11-15T08:47:31.001Z,2.42
2022-11-15T08:52:57.142Z,2.23
2022-11-15T08:58:27.165Z,2.61
2022-11-15T09:03:48.778Z,2.36
2022-11-15T09:09:14.609Z,2.15
2022-11-15T09:14:42.284Z,2.52
2022-11-15T09:20:09.436Z,2.60
2022-11-15T09:25:34.656Z,2.44
2022-11-15T09:31:02.056Z,2.35
2022-11-15T09:36:28.593Z,2.28
2022-11-15T09:41:49.935Z,2.41
2022-11-15T09:47:21.600Z,2.53
2022-11-15T09:53:00.834Z,2.60
2022-11-15T09:58:27.035Z,2.71
2022-11-15T10:03:50.080Z,2.40
2022-11-15T10:09:20.004Z,2.26
2022-11-15T10:14:40.588Z,2.42
2022-11-15T10:20:05.984Z,2.33
2022-11-15T10:25:29.080Z,1.83
2022-11-15T10:30:56.172Z,1.97
2022-11-15T10:36:20.709Z,1.47
2022-11-15T10:41:47.774Z,1.37
2022-11-15T10:47:12.838Z,1.62
2022-11-15T10:52:47.156Z,1.38
2022-11-15T10:58:15.276Z,1.58
2022-11-15T11:03:47.622Z,1.47
2022-11-15T11:09:20.954Z,1.75
2022-11-15T11:14:53.152Z,1.81
2022-11-15T11:20:20.720Z,1.55
2022-11-15T11:25:43.742Z,1.60
2022-11-15T11:31:10.734Z,1.42
2022-11-15T11:36:34.757Z,1.30
2022-11-15T11:41:59.269Z,1.22
2022-11-15T11:47:25.113Z,1.21
2022-11-15T11:52:53.961Z,1.01
2022-11-15T11:58:22.559Z,0.81
2022-11-15T12:03:48.046Z,1.18
2022-11-15T12:09:15.034Z,1.25
2022-11-15T12:14:41.272Z,1.01
2022-11-15T12:20:07.464Z,1.05
2022-11-15T12:25:37.809Z,0.98
2022-11-15T12:31:03.242Z,1.00
2022-11-15T12:36:31.064Z,1.08
2022-11-15T12:41:53.832Z,0.97
2022-11-15T12:47:45.543Z,0.90
2022-11-15T12:53:07.258Z,0.78
2022-11-15T12:58:49.191Z,0.79
2022-11-15T13:04:15.352Z,0.99
2022-11-15T13:09:41.985Z,0.99
2022-11-15T13:15:16.312Z,1.12
2022-11-15T13:21:14.258Z,0.95
2022-11-15T13:26:44.151Z,1.28
2022-11-15T13:32:10.926Z,1.10
2022-11-15T13:37:40.449Z,1.17
2022-11-15T13:43:07.571Z,1.17
2022-11-15T13:48:39.474Z,1.26
2022-11-15T13:54:04.160Z,0.82
2022-11-15T13:59:36.947Z,1.11
2022-11-15T14:05:03.378Z,1.03
2022-11-15T14:10:34.251Z,1.10
2022-11-15T14:16:00.093Z,1.21
2022-11-15T14:21:41.303Z,1.05
2022-11-15T14:27:26.312Z,1.01
2022-11-15T14:32:52.625Z,1.13
2022-11-15T14:38:14.620Z,1.11
2022-11-15T14:43:40.971Z,1.19
2022-11-15T14:49:06.978Z,1.48
2022-11-15T14:54:28.771Z,1.65
2022-11-15T14:59:56.263Z,1.60
2022-11-15T15:05:20.478Z,1.69
2022-11-15T15:10:42.720Z,1.43
2022-11-15T15:16:06.826Z,1.91
2022-11-15T15:21:37.097Z,2.93
2022-11-15T15:26:59.672Z,3.24
2022-11-15T15:32:26.424Z,1.58
2022-11-15T15:37:52.377Z,1.99
2022-11-15T15:43:18.897Z,1.73
2022-11-15T15:48:41.920Z,1.26
2022-11-15T15:54:03.579Z,1.19
2022-11-15T15:59:25.515Z,1.08
2022-11-15T16:04:46.799Z,1.32
2022-11-15T16:10:08.067Z,1.20
2022-11-15T16:15:38.733Z,1.23
2022-11-15T16:21:05.207Z,1.69
2022-11-15T16:26:31.939Z,1.43
2022-11-15T16:31:58.689Z,1.42
2022-11-15T16:37:25.489Z,1.22
2022-11-15T16:42:51.801Z,0.88
2022-11-15T16:48:15.714Z,0.59
2022-11-15T16:53:42.460Z,1.12
2022-11-15T16:59:06.578Z,1.00
2022-11-15T17:04:32.041Z,1.03
2022-11-15T17:09:58.700Z,1.07
2022-11-15T17:15:26.106Z,1.00
2022-11-15T17:20:49.089Z,1.12
2022-11-15T17:26:28.779Z,1.00
2022-11-15T17:31:40.010Z,0.85
2022-11-15T17:37:07.093Z,0.82
2022-11-15T17:42:32.609Z,0.94
2022-11-15T17:47:59.804Z,0.87
2022-11-15T17:53:27.523Z,0.86
2022-11-15T17:58:53.719Z,0.67
2022-11-15T18:04:20.849Z,0.67
2022-11-15T18:09:44.463Z,1.06
2022-11-15T18:15:11.206Z,1.10
2022-11-15T18:20:36.091Z,0.80
2022-11-15T18:26:03.048Z,1.15
2022-11-15T18:31:25.658Z,1.09
2022-11-15T18:36:51.798Z,1.02
2022-11-15T18:42:18.295Z,1.19
2022-11-15T18:47:45.125Z,1.23
2022-11-15T18:53:12.351Z,1.39
2022-11-15T18:58:34.641Z,1.18
2022-11-15T19:03:59.141Z,1.20
2022-11-15T19:09:20.984Z,1.32
2022-11-15T19:14:42.336Z,1.33
2022-11-15T19:20:09.018Z,1.08
2022-11-15T19:25:36.138Z,1.10
2022-11-15T19:31:00.828Z,1.27
2022-11-15T19:36:27.727Z,1.10
2022-11-15T19:41:51.030Z,1.26
2022-11-15T19:47:14.867Z,1.40
2022-11-15T19:52:39.962Z,1.42
2022-11-15T19:58:01.856Z,1.53
2022-11-15T20:03:28.790Z,1.46
2022-11-15T20:08:52.367Z,1.54
2022-11-15T20:14:17.638Z,1.49
2022-11-15T20:19:43.745Z,2.08
2022-11-15T20:25:10.749Z,2.85
2022-11-15T20:30:34.830Z,1.76
2022-11-15T20:36:00.844Z,1.80
2022-11-15T20:41:23.621Z,1.60
2022-11-15T20:46:47.920Z,1.54
2022-11-15T20:52:14.731Z,1.45
2022-11-15T20:57:41.621Z,1.56
2022-11-15T21:03:08.120Z,2.27
2022-11-15T21:08:35.366Z,2.61
2022-11-15T21:14:04.996Z,1.97
2022-11-15T21:19:32.667Z,2.18
2022-11-15T21:24:54.539Z,2.11
2022-11-15T21:30:21.666Z,2.70
2022-11-15T21:35:48.764Z,2.63
2022-11-15T21:41:16.003Z,2.39
2022-11-15T21:46:54.113Z,2.44
2022-11-15T21:52:20.311Z,2.26
2022-11-15T21:57:45.027Z,2.15
2022-11-15T22:03:11.042Z,2.72
2022-11-15T22:08:36.825Z,3.37
2022-11-15T22:14:04.488Z,3.05
2022-11-15T22:19:30.922Z,3.09
2022-11-15T22:24:52.230Z,3.18
2022-11-15T22:30:14.107Z,3.19
2022-11-15T22:35:37.804Z,3.20
2022-11-15T22:41:02.620Z,3.46
2022-11-15T22:46:29.637Z,3.42
2022-11-15T22:51:52.826Z,3.18
2022-11-15T22:57:19.176Z,3.58
2022-11-15T23:02:44.495Z,3.36
2022-11-15T23:08:10.093Z,3.01
2022-11-15T23:13:35.904Z,3.14
2022-11-15T23:19:03.208Z,2.76
2022-11-15T23:24:30.694Z,2.94
2022-11-15T23:29:54.567Z,2.69
2022-11-15T23:35:17.753Z,2.75
2022-11-15T23:40:43.835Z,2.58
2022-11-15T23:46:11.454Z,2.22
2022-11-15T23:51:38.980Z,2.49
2022-11-15T23:57:06.881Z,2.21
